Time,TemperatureF,DewpointF,PressureIn,WindDirection,WindDirectionDegrees,WindSpeedMPH,WindSpeedGustMPH,Humidity,HourlyPrecipIn,Conditions,Clouds,dailyrainin,SoftwareType,DateUTC
2013-06-29 00:01:00,70.0,44.0,-100.00,SW,219,1.0,2.0,38,0.00,,,-99.99,,2013-06-29 06:01:00,
2013-06-29 00:12:00,70.0,44.0,-100.00,SSE,147,1.0,2.0,39,0.00,,,-99.99,,2013-06-29 06:12:00,
2013-06-29 00:43:00,69.0,44.0,-100.00,West,271,0.0,0.0,41,0.00,,,-99.99,,2013-06-29 06:43:00,
2013-06-29 01:02:00,69.0,45.0,-100.00,SSW,212,4.0,5.0,43,0.00,,,-99.99,,2013-06-29 07:02:00,
2013-06-29 01:43:00,67.0,45.0,-100.00,NE,42,1.0,1.0,44,0.00,,,-99.99,,2013-06-29 07:43:00,
2013-06-29 01:53:00,68.0,45.0,-100.00,SSW,202,2.0,4.0,45,0.00,,,-99.99,,2013-06-29 07:53:00,
2013-06-29 02:01:00,67.0,45.0,-100.00,WSW,257,4.0,5.0,46,0.00,,,-99.99,,2013-06-29 08:01:00,
2013-06-29 02:33:00,66.0,45.0,-100.00,South,189,5.0,6.0,46,0.00,,,-99.99,,2013-06-29 08:33:00,
2013-06-29 02:43:00,66.0,45.0,-100.00,SSW,205,2.0,3.0,47,0.00,,,-99.99,,2013-06-29 08:43:00,
2013-06-29 03:02:00,65.0,45.0,-100.00,SW,217,1.0,2.0,48,0.00,,,-99.99,,2013-06-29 09:02:00,
2013-06-29 03:12:00,64.0,45.0,-100.00,ESE,107,0.0,1.0,49,0.00,,,-99.99,,2013-06-29 09:12:00,
2013-06-29 03:42:00,65.0,45.0,-100.00,NW,306,0.0,1.0,49,0.00,,,-99.99,,2013-06-29 09:42:00,
2013-06-29 04:43:00,65.0,46.0,-100.00,SW,215,1.0,2.0,50,0.00,,,-99.99,,2013-06-29 10:43:00,
2013-06-29 05:01:00,63.0,46.0,-100.00,SSE,164,4.0,4.0,52,0.00,,,-99.99,,2013-06-29 11:01:00,
2013-06-29 05:11:00,63.0,46.0,-100.00,ESE,114,1.0,2.0,54,0.00,,,-99.99,,2013-06-29 11:11:00,
2013-06-29 05:43:00,63.0,46.0,-100.00,ESE,104,0.0,1.0,53,0.00,,,-99.99,,2013-06-29 11:43:00,
2013-06-29 06:02:00,60.0,46.0,-100.00,SE,141,2.0,2.0,59,0.00,,,-99.99,,2013-06-29 12:02:00,
2013-06-29 06:12:00,59.0,46.0,-100.00,SE,131,3.0,4.0,62,0.00,,,-99.99,,2013-06-29 12:12:00,
2013-06-29 06:34:00,62.0,46.0,-100.00,ESE,117,1.0,1.0,57,0.00,,,-99.99,,2013-06-29 12:34:00,
2013-06-29 06:43:00,62.0,46.0,-100.00,South,189,1.0,2.0,55,0.00,,,-99.99,,2013-06-29 12:43:00,
2013-06-29 06:53:00,63.0,47.0,-100.00,East,90,0.0,0.0,56,0.00,,,-99.99,,2013-06-29 12:53:00,
2013-06-29 07:43:00,69.0,46.0,-100.00,WSW,258,0.0,0.0,43,0.00,,,-99.99,,2013-06-29 13:43:00,
2013-06-29 08:12:00,69.0,47.0,-100.00,NNE,18,3.0,4.0,45,0.00,,,-99.99,,2013-06-29 14:12:00,
2013-06-29 08:44:00,69.0,47.0,-100.00,NW,326,4.0,6.0,45,0.00,,,-99.99,,2013-06-29 14:44:00,
2013-06-29 08:53:00,68.0,47.0,-100.00,North,360,3.0,6.0,46,0.00,,,-99.99,,2013-06-29 14:53:00,
2013-06-29 09:11:00,69.0,47.0,-100.00,NNW,332,5.0,7.0,47,0.00,,,-99.99,,2013-06-29 15:11:00,
2013-06-29 09:42:00,70.0,45.0,-100.00,NNW,343,3.0,6.0,41,0.00,,,-99.99,,2013-06-29 15:42:00,
2013-06-29 10:01:00,71.0,47.0,-100.00,NW,315,2.0,3.0,42,0.00,,,-99.99,,2013-06-29 16:01:00,
2013-06-29 10:43:00,72.0,47.0,-100.00,NW,326,2.0,5.0,40,0.00,,,-99.99,,2013-06-29 16:43:00,
2013-06-29 11:12:00,74.0,45.0,-100.00,NNW,344,2.0,4.0,36,0.00,,,-99.99,,2013-06-29 17:12:00,
2013-06-29 11:42:00,74.0,45.0,-100.00,East,88,7.0,10.0,35,0.00,,,-99.99,,2013-06-29 17:42:00,
2013-06-29 12:01:00,76.0,45.0,-100.00,NW,322,3.0,7.0,33,0.00,,,-99.99,,2013-06-29 18:01:00,
2013-06-29 12:12:00,76.0,45.0,-100.00,NNW,339,2.0,4.0,33,0.00,,,-99.99,,2013-06-29 18:12:00,
2013-06-29 12:22:00,76.0,45.0,-100.00,NNE,24,2.0,4.0,32,0.00,,,-99.99,,2013-06-29 18:22:00,
2013-06-29 12:34:00,76.0,44.0,-100.00,NNE,14,4.0,6.0,32,0.00,,,-99.99,,2013-06-29 18:34:00,
2013-06-29 12:43:00,78.0,44.0,-100.00,NNW,346,1.0,4.0,30,0.00,,,-99.99,,2013-06-29 18:43:00,
2013-06-29 13:12:00,80.0,44.0,-100.00,WNW,299,2.0,5.0,29,0.00,,,-99.99,,2013-06-29 19:12:00,
2013-06-29 13:43:00,82.0,43.0,-100.00,WSW,248,6.0,8.0,25,0.00,,,-99.99,,2013-06-29 19:43:00,
2013-06-29 14:02:00,78.0,42.0,-100.00,NNE,14,4.0,7.0,28,0.00,,,-99.99,,2013-06-29 20:02:00,
2013-06-29 14:11:00,79.0,43.0,-100.00,WNW,302,4.0,6.0,27,0.00,,,-99.99,,2013-06-29 20:11:00,
2013-06-29 14:33:00,79.0,44.0,-100.00,WNW,289,6.0,7.0,29,0.00,,,-99.99,,2013-06-29 20:33:00,
2013-06-29 14:43:00,79.0,44.0,-100.00,WNW,284,2.0,4.0,29,0.00,,,-99.99,,2013-06-29 20:43:00,
2013-06-29 14:52:00,79.0,44.0,-100.00,WNW,289,2.0,4.0,29,0.00,,,-99.99,,2013-06-29 20:52:00,
2013-06-29 15:02:00,78.0,45.0,-100.00,NW,306,4.0,4.0,31,0.00,,,-99.99,,2013-06-29 21:02:00,
2013-06-29 15:11:00,78.0,45.0,-100.00,West,270,6.0,7.0,31,0.00,,,-99.99,,2013-06-29 21:11:00,
2013-06-29 15:22:00,79.0,46.0,-100.00,WNW,288,2.0,4.0,31,0.00,,,-99.99,,2013-06-29 21:22:00,
2013-06-29 15:32:00,78.0,45.0,-100.00,West,268,4.0,4.0,31,0.00,,,-99.99,,2013-06-29 21:32:00,
2013-06-29 15:42:00,76.0,47.0,-100.00,WSW,257,7.0,9.0,36,0.00,,,-99.99,,2013-06-29 21:42:00,
2013-06-29 15:52:00,75.0,47.0,-100.00,WSW,237,3.0,4.0,37,0.00,,,-99.99,,2013-06-29 21:52:00,
2013-06-29 16:01:00,75.0,46.0,-100.00,SW,236,6.0,9.0,36,0.00,,,-99.99,,2013-06-29 22:01:00,
2013-06-29 16:11:00,74.0,45.0,-100.00,WSW,237,10.0,16.0,35,0.00,,,-99.99,,2013-06-29 22:11:00,
2013-06-29 16:43:00,78.0,34.0,-100.00,East,79,29.0,35.0,20,0.00,,,-99.99,,2013-06-29 22:43:00,
2013-06-29 16:53:00,78.0,34.0,-100.00,North,352,10.0,12.0,20,0.00,,,-99.99,,2013-06-29 22:53:00,
2013-06-29 17:12:00,74.0,39.0,-100.00,NW,305,21.0,31.0,28,0.00,,,-99.99,,2013-06-29 23:12:00,
2013-06-29 18:11:00,70.0,47.0,-100.00,South,182,11.0,12.0,43,0.00,,,-99.99,,2013-06-30 00:11:00,
2013-06-29 18:43:00,70.0,48.0,-100.00,SSE,165,12.0,14.0,45,0.00,,,-99.99,,2013-06-30 00:43:00,
2013-06-29 19:01:00,69.0,48.0,-100.00,NW,315,11.0,14.0,47,0.00,,,-99.99,,2013-06-30 01:01:00,
2013-06-29 19:11:00,70.0,44.0,-100.00,West,271,9.0,12.0,40,0.00,,,-99.99,,2013-06-30 01:11:00,
2013-06-29 19:44:00,68.0,46.0,-100.00,NNW,337,4.0,7.0,45,0.00,,,-99.99,,2013-06-30 01:44:00,
2013-06-29 19:53:00,69.0,45.0,-100.00,West,280,1.0,2.0,42,0.00,,,-99.99,,2013-06-30 01:53:00,
2013-06-29 20:02:00,69.0,46.0,-100.00,SW,233,1.0,3.0,43,0.00,,,-99.99,,2013-06-30 02:02:00,
2013-06-29 20:11:00,69.0,47.0,-100.00,SSW,209,2.0,3.0,45,0.00,,,-99.99,,2013-06-30 02:11:00,
2013-06-29 20:33:00,70.0,44.0,-100.00,NNW,332,4.0,6.0,39,0.00,,,-99.99,,2013-06-30 02:33:00,
2013-06-29 20:43:00,69.0,46.0,-100.00,NNW,328,2.0,3.0,43,0.00,,,-99.99,,2013-06-30 02:43:00,
2013-06-29 21:01:00,69.0,44.0,-100.00,WSW,241,2.0,3.0,40,0.00,,,-99.99,,2013-06-30 03:01:00,
2013-06-29 21:12:00,68.0,45.0,-100.00,SW,219,2.0,4.0,43,0.00,,,-99.99,,2013-06-30 03:12:00,
2013-06-29 21:43:00,68.0,42.0,-100.00,SSW,202,7.0,10.0,38,0.00,,,-99.99,,2013-06-30 03:43:00,
2013-06-29 21:53:00,68.0,41.0,-100.00,WSW,246,2.0,6.0,38,0.00,,,-99.99,,2013-06-30 03:53:00,
2013-06-29 22:12:00,68.0,40.0,-100.00,SSW,202,6.0,7.0,36,0.00,,,-99.99,,2013-06-30 04:12:00,
2013-06-29 22:33:00,69.0,39.0,-100.00,South,184,3.0,5.0,34,0.00,,,-99.99,,2013-06-30 04:33:00,
2013-06-29 22:43:00,68.0,40.0,-100.00,NNW,347,1.0,2.0,36,0.00,,,-99.99,,2013-06-30 04:43:00,
2013-06-29 22:53:00,68.0,42.0,-100.00,North,10,7.0,11.0,38,0.00,,,-99.99,,2013-06-30 04:53:00,
2013-06-29 23:02:00,66.0,45.0,-100.00,North,7,13.0,21.0,46,0.00,,,-99.99,,2013-06-30 05:02:00,
2013-06-29 23:12:00,65.0,46.0,-100.00,North,4,9.0,14.0,49,0.00,,,-99.99,,2013-06-30 05:12:00,
2013-06-29 23:33:00,63.0,47.0,-100.00,NW,311,10.0,13.0,56,0.00,,,-99.99,,2013-06-30 05:33:00,
2013-06-29 23:43:00,63.0,47.0,-100.00,NNW,332,7.0,11.0,56,0.00,,,-99.99,,2013-06-30 05:43:00,
2013-06-29 23:53:00,63.0,47.0,-100.00,NNW,328,7.0,11.0,56,0.00,,,-99.99,,2013-06-30 05:53:00,